sensor_id;sensor_type;location;lat;lon;timestamp;P1;durP1;ratioP1;P2;durP2;ratioP2
61487;SDS011;47351;53.326;-6.298;2022-09-09T00:00:46;11.50;;;5.30;;
61487;SDS011;47351;53.326;-6.298;2022-09-09T00:03:34;9.90;;;5.00;;
61487;SDS011;47351;53.326;-6.298;2022-09-09T00:06:43;12.30;;;4.90;;
61487;SDS011;47351;53.326;-6.298;2022-09-09T00:09:29;9.20;;;4.30;;
61487;SDS011;47351;53.326;-6.298;2022-09-09T00:12:34;12.00;;;4.80;;
61487;SDS011;47351;53.326;-6.298;2022-09-09T00:15:19;10.70;;;5.00;;
61487;SDS011;47351;53.326;-6.298;2022-09-09T00:18:03;12.40;;;5.10;;
61487;SDS011;47351;53.326;-6.298;2022-09-09T00:20:55;11.20;;;5.10;;
61487;SDS011;47351;53.326;-6.298;2022-09-09T00:23:54;9.70;;;5.00;;
61487;SDS011;47351;53.326;-6.298;2022-09-09T00:26:52;10.30;;;5.10;;
61487;SDS011;47351;53.326;-6.298;2022-09-09T00:29:33;10.90;;;5.60;;
61487;SDS011;47351;53.326;-6.298;2022-09-09T00:32:13;11.10;;;5.80;;
61487;SDS011;47351;53.326;-6.298;2022-09-09T00:34:49;14.00;;;5.60;;
61487;SDS011;47351;53.326;-6.298;2022-09-09T00:37:40;10.70;;;6.00;;
61487;SDS011;47351;53.326;-6.298;2022-09-09T00:40:51;12.50;;;6.10;;
61487;SDS011;47351;53.326;-6.298;2022-09-09T00:43:49;10.90;;;5.90;;
61487;SDS011;47351;53.326;-6.298;2022-09-09T00:47:12;13.20;;;5.70;;
61487;SDS011;47351;53.326;-6.298;2022-09-09T00:50:43;11.70;;;6.10;;
61487;SDS011;47351;53.326;-6.298;2022-09-09T00:54:11;11.30;;;5.30;;
61487;SDS011;47351;53.326;-6.298;2022-09-09T01:01:14;10.70;;;5.30;;
61487;SDS011;47351;53.326;-6.298;2022-09-09T01:04:13;8.90;;;5.50;;
61487;SDS011;47351;53.326;-6.298;2022-09-09T01:07:29;9.60;;;5.00;;
61487;SDS011;47351;53.326;-6.298;2022-09-09T01:10:26;8.70;;;5.20;;
61487;SDS011;47351;53.326;-6.298;2022-09-09T01:13:26;8.80;;;5.10;;
61487;SDS011;47351;53.326;-6.298;2022-09-09T01:16:12;10.10;;;5.10;;
61487;SDS011;47351;53.326;-6.298;2022-09-09T01:19:04;8.30;;;5.30;;
61487;SDS011;47351;53.326;-6.298;2022-09-09T01:22:20;9.20;;;5.30;;
61487;SDS011;47351;53.326;-6.298;2022-09-09T01:25:30;12.70;;;5.80;;
61487;SDS011;47351;53.326;-6.298;2022-09-09T01:28:58;9.60;;;5.20;;
61487;SDS011;47351;53.326;-6.298;2022-09-09T01:35:57;10.10;;;5.20;;
61487;SDS011;47351;53.326;-6.298;2022-09-09T01:39:00;8.60;;;5.30;;
61487;SDS011;47351;53.326;-6.298;2022-09-09T01:41:50;10.60;;;5.10;;
61487;SDS011;47351;53.326;-6.298;2022-09-09T01:44:45;8.70;;;4.80;;
61487;SDS011;47351;53.326;-6.298;2022-09-09T01:47:37;9.40;;;4.70;;
61487;SDS011;47351;53.326;-6.298;2022-09-09T01:50:47;9.70;;;4.40;;
61487;SDS011;47351;53.326;-6.298;2022-09-09T01:53:55;9.00;;;4.70;;
61487;SDS011;47351;53.326;-6.298;2022-09-09T01:57:14;9.90;;;4.40;;
61487;SDS011;47351;53.326;-6.298;2022-09-09T02:00:27;8.30;;;4.60;;
61487;SDS011;47351;53.326;-6.298;2022-09-09T02:07:30;8.20;;;4.40;;
61487;SDS011;47351;53.326;-6.298;2022-09-09T02:10:47;9.30;;;4.70;;
61487;SDS011;47351;53.326;-6.298;2022-09-09T02:14:02;9.00;;;4.60;;
61487;SDS011;47351;53.326;-6.298;2022-09-09T02:17:15;9.20;;;4.90;;
61487;SDS011;47351;53.326;-6.298;2022-09-09T02:20:13;9.80;;;4.60;;
61487;SDS011;47351;53.326;-6.298;2022-09-09T02:23:26;9.70;;;4.70;;
61487;SDS011;47351;53.326;-6.298;2022-09-09T02:26:39;10.60;;;5.40;;
61487;SDS011;47351;53.326;-6.298;2022-09-09T02:29:24;7.80;;;4.70;;
61487;SDS011;47351;53.326;-6.298;2022-09-09T02:32:37;8.10;;;4.70;;
61487;SDS011;47351;53.326;-6.298;2022-09-09T02:39:19;8.20;;;4.80;;
61487;SDS011;47351;53.326;-6.298;2022-09-09T02:42:28;10.50;;;5.40;;
61487;SDS011;47351;53.326;-6.298;2022-09-09T02:45:20;7.90;;;4.60;;
61487;SDS011;47351;53.326;-6.298;2022-09-09T02:48:34;11.60;;;5.10;;
61487;SDS011;47351;53.326;-6.298;2022-09-09T02:51:54;8.40;;;5.00;;
61487;SDS011;47351;53.326;-6.298;2022-09-09T02:58:56;11.60;;;5.10;;
61487;SDS011;47351;53.326;-6.298;2022-09-09T03:02:21;8.60;;;5.10;;
61487;SDS011;47351;53.326;-6.298;2022-09-09T03:05:32;9.20;;;5.20;;
61487;SDS011;47351;53.326;-6.298;2022-09-09T03:08:42;10.40;;;4.90;;
61487;SDS011;47351;53.326;-6.298;2022-09-09T03:11:36;9.10;;;5.00;;
61487;SDS011;47351;53.326;-6.298;2022-09-09T03:14:29;8.60;;;4.50;;
61487;SDS011;47351;53.326;-6.298;2022-09-09T03:17:39;7.60;;;4.00;;
61487;SDS011;47351;53.326;-6.298;2022-09-09T03:20:49;10.10;;;4.20;;
61487;SDS011;47351;53.326;-6.298;2022-09-09T03:27:09;7.80;;;4.20;;
61487;SDS011;47351;53.326;-6.298;2022-09-09T03:30:20;11.60;;;4.90;;
61487;SDS011;47351;53.326;-6.298;2022-09-09T03:33:36;9.10;;;4.20;;
61487;SDS011;47351;53.326;-6.298;2022-09-09T03:36:21;7.50;;;4.20;;
61487;SDS011;47351;53.326;-6.298;2022-09-09T03:42:52;7.80;;;4.10;;
61487;SDS011;47351;53.326;-6.298;2022-09-09T03:49:46;10.20;;;4.10;;
61487;SDS011;47351;53.326;-6.298;2022-09-09T03:52:26;8.00;;;4.00;;
61487;SDS011;47351;53.326;-6.298;2022-09-09T03:55:38;9.30;;;3.90;;
61487;SDS011;47351;53.326;-6.298;2022-09-09T03:58:52;7.90;;;4.40;;
61487;SDS011;47351;53.326;-6.298;2022-09-09T04:06:10;10.20;;;4.40;;
61487;SDS011;47351;53.326;-6.298;2022-09-09T04:09:20;7.50;;;3.90;;
61487;SDS011;47351;53.326;-6.298;2022-09-09T04:12:12;8.80;;;3.70;;
61487;SDS011;47351;53.326;-6.298;2022-09-09T04:15:21;7.70;;;3.70;;
61487;SDS011;47351;53.326;-6.298;2022-09-09T04:18:30;8.00;;;3.70;;
61487;SDS011;47351;53.326;-6.298;2022-09-09T04:24:52;9.00;;;3.60;;
61487;SDS011;47351;53.326;-6.298;2022-09-09T04:28:03;9.50;;;3.40;;
61487;SDS011;47351;53.326;-6.298;2022-09-09T04:34:24;8.70;;;3.80;;
61487;SDS011;47351;53.326;-6.298;2022-09-09T04:38:28;8.20;;;3.50;;
61487;SDS011;47351;53.326;-6.298;2022-09-09T04:44:38;5.90;;;3.10;;
61487;SDS011;47351;53.326;-6.298;2022-09-09T04:56:19;7.50;;;3.50;;
61487;SDS011;47351;53.326;-6.298;2022-09-09T05:03:34;5.90;;;2.90;;
61487;SDS011;47351;53.326;-6.298;2022-09-09T05:06:43;6.10;;;3.10;;
61487;SDS011;47351;53.326;-6.298;2022-09-09T05:10:59;6.30;;;3.10;;
61487;SDS011;47351;53.326;-6.298;2022-09-09T05:15:03;5.80;;;3.00;;
61487;SDS011;47351;53.326;-6.298;2022-09-09T05:22:25;6.30;;;3.30;;
61487;SDS011;47351;53.326;-6.298;2022-09-09T05:29:54;7.20;;;3.30;;
61487;SDS011;47351;53.326;-6.298;2022-09-09T05:33:03;6.40;;;3.30;;
61487;SDS011;47351;53.326;-6.298;2022-09-09T05:36:10;6.50;;;3.00;;
61487;SDS011;47351;53.326;-6.298;2022-09-09T05:39:10;8.00;;;3.30;;
61487;SDS011;47351;53.326;-6.298;2022-09-09T05:49:17;7.90;;;3.90;;
61487;SDS011;47351;53.326;-6.298;2022-09-09T05:52:20;7.20;;;3.60;;
61487;SDS011;47351;53.326;-6.298;2022-09-09T05:55:14;7.60;;;3.60;;
61487;SDS011;47351;53.326;-6.298;2022-09-09T05:58:25;8.00;;;3.60;;
61487;SDS011;47351;53.326;-6.298;2022-09-09T06:01:15;6.20;;;3.20;;
61487;SDS011;47351;53.326;-6.298;2022-09-09T06:04:09;7.80;;;3.60;;
61487;SDS011;47351;53.326;-6.298;2022-09-09T06:07:20;7.20;;;3.90;;
61487;SDS011;47351;53.326;-6.298;2022-09-09T06:10:31;8.60;;;4.20;;
61487;SDS011;47351;53.326;-6.298;2022-09-09T06:13:45;5.90;;;3.50;;
61487;SDS011;47351;53.326;-6.298;2022-09-09T06:16:40;7.90;;;3.70;;
61487;SDS011;47351;53.326;-6.298;2022-09-09T06:19:59;8.10;;;3.70;;
61487;SDS011;47351;53.326;-6.298;2022-09-09T06:26:30;6.10;;;3.40;;
61487;SDS011;47351;53.326;-6.298;2022-09-09T06:29:31;6.80;;;3.80;;
61487;SDS011;47351;53.326;-6.298;2022-09-09T06:32:47;5.40;;;3.30;;
61487;SDS011;47351;53.326;-6.298;2022-09-09T06:36:04;8.20;;;3.70;;
61487;SDS011;47351;53.326;-6.298;2022-09-09T06:39:26;4.30;;;2.60;;
61487;SDS011;47351;53.326;-6.298;2022-09-09T06:42:25;4.50;;;2.90;;
61487;SDS011;47351;53.326;-6.298;2022-09-09T06:45:30;6.30;;;3.40;;
61487;SDS011;47351;53.326;-6.298;2022-09-09T06:48:42;6.00;;;2.90;;
61487;SDS011;47351;53.326;-6.298;2022-09-09T06:54:41;5.00;;;2.60;;
61487;SDS011;47351;53.326;-6.298;2022-09-09T06:58:32;4.70;;;2.50;;
61487;SDS011;47351;53.326;-6.298;2022-09-09T07:01:48;4.60;;;2.50;;
61487;SDS011;47351;53.326;-6.298;2022-09-09T07:05:21;6.00;;;3.00;;
61487;SDS011;47351;53.326;-6.298;2022-09-09T07:08:53;6.20;;;2.60;;
61487;SDS011;47351;53.326;-6.298;2022-09-09T07:16:56;5.90;;;2.60;;
61487;SDS011;47351;53.326;-6.298;2022-09-09T07:20:11;5.50;;;2.80;;
61487;SDS011;47351;53.326;-6.298;2022-09-09T07:39:37;6.10;;;2.70;;
61487;SDS011;47351;53.326;-6.298;2022-09-09T07:43:42;5.70;;;2.70;;
61487;SDS011;47351;53.326;-6.298;2022-09-09T07:46:55;5.50;;;2.40;;
61487;SDS011;47351;53.326;-6.298;2022-09-09T07:50:28;5.80;;;2.50;;
61487;SDS011;47351;53.326;-6.298;2022-09-09T07:54:12;4.20;;;2.50;;
61487;SDS011;47351;53.326;-6.298;2022-09-09T07:57:36;4.40;;;2.40;;
61487;SDS011;47351;53.326;-6.298;2022-09-09T08:04:57;3.20;;;1.90;;
61487;SDS011;47351;53.326;-6.298;2022-09-09T08:20:43;3.70;;;1.30;;
61487;SDS011;47351;53.326;-6.298;2022-09-09T08:28:25;4.10;;;1.40;;
61487;SDS011;47351;53.326;-6.298;2022-09-09T08:31:18;4.90;;;1.40;;
61487;SDS011;47351;53.326;-6.298;2022-09-09T08:35:28;3.40;;;1.30;;
61487;SDS011;47351;53.326;-6.298;2022-09-09T08:39:39;2.20;;;1.20;;
61487;SDS011;47351;53.326;-6.298;2022-09-09T08:42:41;2.30;;;1.30;;
61487;SDS011;47351;53.326;-6.298;2022-09-09T08:45:22;5.20;;;2.10;;
61487;SDS011;47351;53.326;-6.298;2022-09-09T08:48:24;3.70;;;2.30;;
61487;SDS011;47351;53.326;-6.298;2022-09-09T08:55:59;2.70;;;1.30;;
61487;SDS011;47351;53.326;-6.298;2022-09-09T08:59:09;6.70;;;2.10;;
61487;SDS011;47351;53.326;-6.298;2022-09-09T09:01:53;3.00;;;1.60;;
61487;SDS011;47351;53.326;-6.298;2022-09-09T09:04:44;8.20;;;3.50;;
61487;SDS011;47351;53.326;-6.298;2022-09-09T09:07:47;9.60;;;4.30;;
61487;SDS011;47351;53.326;-6.298;2022-09-09T09:10:47;7.60;;;2.70;;
61487;SDS011;47351;53.326;-6.298;2022-09-09T09:13:24;8.70;;;2.70;;
61487;SDS011;47351;53.326;-6.298;2022-09-09T09:16:13;5.60;;;1.50;;
61487;SDS011;47351;53.326;-6.298;2022-09-09T09:19:11;2.60;;;1.10;;
61487;SDS011;47351;53.326;-6.298;2022-09-09T09:21:50;1.90;;;1.00;;
61487;SDS011;47351;53.326;-6.298;2022-09-09T09:24:33;3.40;;;1.00;;
61487;SDS011;47351;53.326;-6.298;2022-09-09T09:27:18;2.60;;;1.10;;
61487;SDS011;47351;53.326;-6.298;2022-09-09T09:30:17;4.20;;;1.70;;
61487;SDS011;47351;53.326;-6.298;2022-09-09T09:33:01;4.90;;;1.40;;
61487;SDS011;47351;53.326;-6.298;2022-09-09T09:35:34;4.40;;;1.10;;
61487;SDS011;47351;53.326;-6.298;2022-09-09T09:38:15;2.00;;;0.90;;
61487;SDS011;47351;53.326;-6.298;2022-09-09T09:41:09;3.90;;;1.10;;
61487;SDS011;47351;53.326;-6.298;2022-09-09T09:43:42;1.70;;;1.00;;
61487;SDS011;47351;53.326;-6.298;2022-09-09T09:46:23;3.80;;;1.10;;
61487;SDS011;47351;53.326;-6.298;2022-09-09T09:48:58;4.10;;;1.30;;
61487;SDS011;47351;53.326;-6.298;2022-09-09T09:52:12;3.50;;;1.30;;
61487;SDS011;47351;53.326;-6.298;2022-09-09T09:54:49;2.40;;;1.10;;
61487;SDS011;47351;53.326;-6.298;2022-09-09T09:57:23;7.30;;;1.30;;
61487;SDS011;47351;53.326;-6.298;2022-09-09T10:00:13;2.60;;;1.00;;
61487;SDS011;47351;53.326;-6.298;2022-09-09T10:03:14;9.30;;;5.10;;
61487;SDS011;47351;53.326;-6.298;2022-09-09T10:05:52;1.60;;;1.00;;
61487;SDS011;47351;53.326;-6.298;2022-09-09T10:08:27;4.20;;;1.10;;
61487;SDS011;47351;53.326;-6.298;2022-09-09T10:11:21;2.70;;;1.00;;
61487;SDS011;47351;53.326;-6.298;2022-09-09T10:14:03;3.50;;;1.30;;
61487;SDS011;47351;53.326;-6.298;2022-09-09T10:16:44;5.10;;;1.30;;
61487;SDS011;47351;53.326;-6.298;2022-09-09T10:19:29;3.10;;;1.10;;
61487;SDS011;47351;53.326;-6.298;2022-09-09T10:22:18;5.50;;;1.10;;
61487;SDS011;47351;53.326;-6.298;2022-09-09T10:25:10;3.10;;;0.90;;
61487;SDS011;47351;53.326;-6.298;2022-09-09T10:27:52;2.70;;;1.00;;
61487;SDS011;47351;53.326;-6.298;2022-09-09T10:30:35;3.30;;;1.10;;
61487;SDS011;47351;53.326;-6.298;2022-09-09T10:33:18;3.70;;;0.90;;
61487;SDS011;47351;53.326;-6.298;2022-09-09T10:35:57;3.00;;;0.80;;
61487;SDS011;47351;53.326;-6.298;2022-09-09T10:38:38;4.40;;;0.80;;
61487;SDS011;47351;53.326;-6.298;2022-09-09T10:41:16;1.30;;;0.80;;
61487;SDS011;47351;53.326;-6.298;2022-09-09T10:43:52;3.70;;;1.40;;
61487;SDS011;47351;53.326;-6.298;2022-09-09T10:46:48;4.60;;;1.10;;
61487;SDS011;47351;53.326;-6.298;2022-09-09T10:49:32;2.60;;;0.90;;
61487;SDS011;47351;53.326;-6.298;2022-09-09T10:52:32;2.60;;;1.00;;
61487;SDS011;47351;53.326;-6.298;2022-09-09T10:55:16;6.80;;;1.10;;
61487;SDS011;47351;53.326;-6.298;2022-09-09T10:57:47;3.50;;;1.10;;
61487;SDS011;47351;53.326;-6.298;2022-09-09T11:00:20;2.70;;;1.00;;
61487;SDS011;47351;53.326;-6.298;2022-09-09T11:02:51;3.20;;;1.00;;
61487;SDS011;47351;53.326;-6.298;2022-09-09T11:05:26;2.30;;;1.00;;
61487;SDS011;47351;53.326;-6.298;2022-09-09T11:07:58;2.40;;;0.90;;
61487;SDS011;47351;53.326;-6.298;2022-09-09T11:10:34;3.60;;;1.10;;
61487;SDS011;47351;53.326;-6.298;2022-09-09T11:13:10;4.10;;;1.20;;
61487;SDS011;47351;53.326;-6.298;2022-09-09T11:15:45;5.20;;;1.40;;
61487;SDS011;47351;53.326;-6.298;2022-09-09T11:18:21;5.70;;;1.30;;
61487;SDS011;47351;53.326;-6.298;2022-09-09T11:20:56;2.70;;;1.20;;
61487;SDS011;47351;53.326;-6.298;2022-09-09T11:23:32;3.50;;;1.10;;
61487;SDS011;47351;53.326;-6.298;2022-09-09T11:26:38;5.00;;;1.10;;
61487;SDS011;47351;53.326;-6.298;2022-09-09T11:29:17;2.00;;;1.00;;
61487;SDS011;47351;53.326;-6.298;2022-09-09T11:32:15;4.20;;;1.00;;
61487;SDS011;47351;53.326;-6.298;2022-09-09T11:34:56;5.60;;;1.20;;
61487;SDS011;47351;53.326;-6.298;2022-09-09T11:38:01;3.20;;;1.00;;
61487;SDS011;47351;53.326;-6.298;2022-09-09T11:40:46;4.90;;;1.20;;
61487;SDS011;47351;53.326;-6.298;2022-09-09T11:43:22;1.70;;;0.90;;
61487;SDS011;47351;53.326;-6.298;2022-09-09T11:45:55;2.90;;;1.10;;
61487;SDS011;47351;53.326;-6.298;2022-09-09T11:48:30;3.00;;;1.10;;
61487;SDS011;47351;53.326;-6.298;2022-09-09T11:51:03;1.80;;;1.10;;
61487;SDS011;47351;53.326;-6.298;2022-09-09T11:53:47;3.40;;;1.10;;
61487;SDS011;47351;53.326;-6.298;2022-09-09T11:56:27;2.10;;;0.80;;
61487;SDS011;47351;53.326;-6.298;2022-09-09T11:58:59;2.30;;;1.00;;
61487;SDS011;47351;53.326;-6.298;2022-09-09T12:01:37;1.50;;;1.00;;
61487;SDS011;47351;53.326;-6.298;2022-09-09T12:04:28;2.20;;;0.90;;
61487;SDS011;47351;53.326;-6.298;2022-09-09T12:07:04;1.30;;;0.80;;
61487;SDS011;47351;53.326;-6.298;2022-09-09T12:09:50;2.50;;;1.00;;
61487;SDS011;47351;53.326;-6.298;2022-09-09T12:12:28;1.50;;;0.80;;
61487;SDS011;47351;53.326;-6.298;2022-09-09T12:18:03;2.70;;;0.80;;
61487;SDS011;47351;53.326;-6.298;2022-09-09T12:20:42;2.70;;;0.80;;
61487;SDS011;47351;53.326;-6.298;2022-09-09T12:23:27;2.30;;;1.00;;
61487;SDS011;47351;53.326;-6.298;2022-09-09T12:26:15;2.40;;;0.70;;
61487;SDS011;47351;53.326;-6.298;2022-09-09T12:29:00;1.40;;;0.60;;
61487;SDS011;47351;53.326;-6.298;2022-09-09T12:31:40;2.20;;;0.90;;
61487;SDS011;47351;53.326;-6.298;2022-09-09T12:34:16;4.00;;;0.90;;
61487;SDS011;47351;53.326;-6.298;2022-09-09T12:36:55;2.40;;;0.80;;
61487;SDS011;47351;53.326;-6.298;2022-09-09T12:39:31;1.60;;;0.80;;
61487;SDS011;47351;53.326;-6.298;2022-09-09T12:42:03;2.10;;;0.80;;
61487;SDS011;47351;53.326;-6.298;2022-09-09T12:44:32;1.40;;;0.90;;
61487;SDS011;47351;53.326;-6.298;2022-09-09T12:47:02;3.00;;;1.00;;
61487;SDS011;47351;53.326;-6.298;2022-09-09T12:49:32;2.20;;;0.90;;
61487;SDS011;47351;53.326;-6.298;2022-09-09T12:52:06;2.60;;;1.00;;
61487;SDS011;47351;53.326;-6.298;2022-09-09T12:54:43;2.60;;;1.10;;
61487;SDS011;47351;53.326;-6.298;2022-09-09T12:57:14;4.10;;;1.00;;
61487;SDS011;47351;53.326;-6.298;2022-09-09T12:59:43;2.70;;;1.00;;
61487;SDS011;47351;53.326;-6.298;2022-09-09T13:02:18;1.50;;;1.00;;
61487;SDS011;47351;53.326;-6.298;2022-09-09T13:04:49;3.90;;;0.90;;
61487;SDS011;47351;53.326;-6.298;2022-09-09T13:07:29;2.30;;;0.90;;
61487;SDS011;47351;53.326;-6.298;2022-09-09T13:09:58;2.70;;;0.90;;
61487;SDS011;47351;53.326;-6.298;2022-09-09T13:12:36;2.50;;;0.90;;
61487;SDS011;47351;53.326;-6.298;2022-09-09T13:15:09;2.50;;;0.80;;
61487;SDS011;47351;53.326;-6.298;2022-09-09T13:18:11;2.50;;;0.80;;
61487;SDS011;47351;53.326;-6.298;2022-09-09T13:20:44;1.80;;;0.90;;
61487;SDS011;47351;53.326;-6.298;2022-09-09T13:23:15;5.80;;;1.10;;
61487;SDS011;47351;53.326;-6.298;2022-09-09T13:25:53;4.30;;;1.20;;
61487;SDS011;47351;53.326;-6.298;2022-09-09T13:28:24;5.00;;;1.10;;
61487;SDS011;47351;53.326;-6.298;2022-09-09T13:31:00;2.40;;;1.00;;
61487;SDS011;47351;53.326;-6.298;2022-09-09T13:33:32;4.70;;;0.80;;
61487;SDS011;47351;53.326;-6.298;2022-09-09T13:36:04;2.70;;;0.90;;
61487;SDS011;47351;53.326;-6.298;2022-09-09T13:38:39;3.20;;;1.00;;
61487;SDS011;47351;53.326;-6.298;2022-09-09T13:41:21;1.90;;;0.70;;
61487;SDS011;47351;53.326;-6.298;2022-09-09T13:43:51;1.90;;;0.80;;
61487;SDS011;47351;53.326;-6.298;2022-09-09T13:46:42;2.20;;;0.90;;
61487;SDS011;47351;53.326;-6.298;2022-09-09T13:49:19;1.10;;;0.80;;
61487;SDS011;47351;53.326;-6.298;2022-09-09T13:52:10;1.40;;;1.00;;
61487;SDS011;47351;53.326;-6.298;2022-09-09T13:54:41;3.30;;;1.00;;
61487;SDS011;47351;53.326;-6.298;2022-09-09T13:57:15;2.10;;;1.00;;
61487;SDS011;47351;53.326;-6.298;2022-09-09T14:00:09;2.80;;;0.90;;
61487;SDS011;47351;53.326;-6.298;2022-09-09T14:05:13;3.80;;;1.40;;
61487;SDS011;47351;53.326;-6.298;2022-09-09T14:07:45;2.70;;;1.30;;
61487;SDS011;47351;53.326;-6.298;2022-09-09T14:10:22;2.10;;;1.30;;
61487;SDS011;47351;53.326;-6.298;2022-09-09T14:12:50;3.10;;;1.50;;
61487;SDS011;47351;53.326;-6.298;2022-09-09T14:15:19;3.90;;;1.80;;
61487;SDS011;47351;53.326;-6.298;2022-09-09T14:17:54;4.10;;;1.60;;
61487;SDS011;47351;53.326;-6.298;2022-09-09T14:20:44;6.30;;;2.00;;
61487;SDS011;47351;53.326;-6.298;2022-09-09T14:23:13;3.70;;;2.00;;
61487;SDS011;47351;53.326;-6.298;2022-09-09T14:25:51;4.50;;;2.20;;
61487;SDS011;47351;53.326;-6.298;2022-09-09T14:28:37;3.20;;;1.90;;
61487;SDS011;47351;53.326;-6.298;2022-09-09T14:31:23;3.90;;;2.20;;
61487;SDS011;47351;53.326;-6.298;2022-09-09T14:33:52;3.60;;;1.90;;
61487;SDS011;47351;53.326;-6.298;2022-09-09T14:36:41;4.00;;;1.80;;
61487;SDS011;47351;53.326;-6.298;2022-09-09T14:39:14;4.60;;;1.80;;
61487;SDS011;47351;53.326;-6.298;2022-09-09T14:42:09;3.70;;;1.90;;
61487;SDS011;47351;53.326;-6.298;2022-09-09T14:45:10;4.10;;;2.00;;
61487;SDS011;47351;53.326;-6.298;2022-09-09T14:47:40;2.20;;;1.70;;
61487;SDS011;47351;53.326;-6.298;2022-09-09T14:50:09;4.30;;;1.30;;
61487;SDS011;47351;53.326;-6.298;2022-09-09T14:52:39;3.90;;;1.30;;
61487;SDS011;47351;53.326;-6.298;2022-09-09T14:55:08;2.80;;;0.90;;
61487;SDS011;47351;53.326;-6.298;2022-09-09T14:57:40;1.70;;;1.00;;
61487;SDS011;47351;53.326;-6.298;2022-09-09T15:00:10;2.50;;;1.10;;
61487;SDS011;47351;53.326;-6.298;2022-09-09T15:02:43;3.20;;;1.00;;
61487;SDS011;47351;53.326;-6.298;2022-09-09T15:05:13;2.70;;;1.30;;
61487;SDS011;47351;53.326;-6.298;2022-09-09T15:07:44;4.60;;;1.10;;
61487;SDS011;47351;53.326;-6.298;2022-09-09T15:10:12;2.60;;;0.90;;
61487;SDS011;47351;53.326;-6.298;2022-09-09T15:12:47;1.70;;;0.90;;
61487;SDS011;47351;53.326;-6.298;2022-09-09T15:15:18;2.10;;;1.10;;
61487;SDS011;47351;53.326;-6.298;2022-09-09T15:17:56;2.50;;;1.00;;
61487;SDS011;47351;53.326;-6.298;2022-09-09T15:20:28;2.80;;;0.80;;
61487;SDS011;47351;53.326;-6.298;2022-09-09T15:22:57;3.40;;;1.00;;
61487;SDS011;47351;53.326;-6.298;2022-09-09T15:25:26;2.40;;;1.10;;
61487;SDS011;47351;53.326;-6.298;2022-09-09T15:27:54;3.00;;;1.60;;
61487;SDS011;47351;53.326;-6.298;2022-09-09T15:30:23;2.00;;;0.80;;
61487;SDS011;47351;53.326;-6.298;2022-09-09T15:32:53;2.10;;;0.90;;
61487;SDS011;47351;53.326;-6.298;2022-09-09T15:35:22;3.50;;;1.00;;
61487;SDS011;47351;53.326;-6.298;2022-09-09T15:37:51;2.50;;;1.10;;
61487;SDS011;47351;53.326;-6.298;2022-09-09T15:40:20;2.90;;;1.00;;
61487;SDS011;47351;53.326;-6.298;2022-09-09T15:42:52;2.90;;;0.80;;
61487;SDS011;47351;53.326;-6.298;2022-09-09T15:45:21;3.60;;;1.40;;
61487;SDS011;47351;53.326;-6.298;2022-09-09T15:47:52;3.50;;;1.10;;
61487;SDS011;47351;53.326;-6.298;2022-09-09T15:50:22;5.00;;;1.10;;
61487;SDS011;47351;53.326;-6.298;2022-09-09T15:52:54;2.80;;;1.10;;
61487;SDS011;47351;53.326;-6.298;2022-09-09T15:55:23;2.00;;;0.90;;
61487;SDS011;47351;53.326;-6.298;2022-09-09T15:57:55;2.40;;;1.00;;
61487;SDS011;47351;53.326;-6.298;2022-09-09T16:00:28;3.10;;;1.20;;
61487;SDS011;47351;53.326;-6.298;2022-09-09T16:03:07;3.30;;;1.20;;
61487;SDS011;47351;53.326;-6.298;2022-09-09T16:05:53;1.90;;;0.90;;
61487;SDS011;47351;53.326;-6.298;2022-09-09T16:08:24;1.60;;;0.90;;
61487;SDS011;47351;53.326;-6.298;2022-09-09T16:11:20;1.60;;;0.80;;
61487;SDS011;47351;53.326;-6.298;2022-09-09T16:14:10;2.30;;;1.20;;
61487;SDS011;47351;53.326;-6.298;2022-09-09T16:16:39;2.80;;;1.20;;
61487;SDS011;47351;53.326;-6.298;2022-09-09T16:22:14;4.50;;;0.80;;
61487;SDS011;47351;53.326;-6.298;2022-09-09T16:25:06;3.30;;;1.00;;
61487;SDS011;47351;53.326;-6.298;2022-09-09T16:28:43;2.00;;;1.00;;
61487;SDS011;47351;53.326;-6.298;2022-09-09T16:31:58;2.70;;;0.90;;
61487;SDS011;47351;53.326;-6.298;2022-09-09T16:35:35;5.20;;;1.20;;
61487;SDS011;47351;53.326;-6.298;2022-09-09T16:38:33;3.90;;;1.30;;
61487;SDS011;47351;53.326;-6.298;2022-09-09T16:41:42;1.60;;;1.10;;
61487;SDS011;47351;53.326;-6.298;2022-09-09T16:44:24;3.40;;;1.10;;
61487;SDS011;47351;53.326;-6.298;2022-09-09T16:47:05;3.60;;;1.00;;
61487;SDS011;47351;53.326;-6.298;2022-09-09T16:49:51;2.80;;;1.10;;
61487;SDS011;47351;53.326;-6.298;2022-09-09T16:52:24;2.20;;;1.10;;
61487;SDS011;47351;53.326;-6.298;2022-09-09T16:55:22;3.10;;;1.10;;
61487;SDS011;47351;53.326;-6.298;2022-09-09T16:58:00;3.50;;;1.50;;
61487;SDS011;47351;53.326;-6.298;2022-09-09T17:00:46;3.00;;;1.10;;
61487;SDS011;47351;53.326;-6.298;2022-09-09T17:03:38;4.20;;;1.20;;
61487;SDS011;47351;53.326;-6.298;2022-09-09T17:10:43;2.90;;;1.20;;
61487;SDS011;47351;53.326;-6.298;2022-09-09T17:13:35;2.60;;;1.20;;
61487;SDS011;47351;53.326;-6.298;2022-09-09T17:16:40;4.50;;;1.50;;
61487;SDS011;47351;53.326;-6.298;2022-09-09T17:20:14;3.20;;;1.20;;
61487;SDS011;47351;53.326;-6.298;2022-09-09T17:23:33;4.20;;;1.40;;
61487;SDS011;47351;53.326;-6.298;2022-09-09T17:26:26;5.30;;;1.70;;
61487;SDS011;47351;53.326;-6.298;2022-09-09T17:29:22;5.90;;;1.60;;
61487;SDS011;47351;53.326;-6.298;2022-09-09T17:31:52;5.20;;;1.60;;
61487;SDS011;47351;53.326;-6.298;2022-09-09T17:34:59;8.00;;;1.60;;
61487;SDS011;47351;53.326;-6.298;2022-09-09T17:37:36;5.90;;;1.80;;
61487;SDS011;47351;53.326;-6.298;2022-09-09T17:40:36;8.80;;;1.70;;
61487;SDS011;47351;53.326;-6.298;2022-09-09T17:46:35;5.50;;;1.60;;
61487;SDS011;47351;53.326;-6.298;2022-09-09T17:52:16;2.90;;;1.00;;
61487;SDS011;47351;53.326;-6.298;2022-09-09T17:54:53;5.20;;;1.30;;
61487;SDS011;47351;53.326;-6.298;2022-09-09T17:57:39;2.80;;;1.20;;
61487;SDS011;47351;53.326;-6.298;2022-09-09T18:00:42;4.90;;;1.00;;
61487;SDS011;47351;53.326;-6.298;2022-09-09T18:03:31;3.10;;;1.00;;
61487;SDS011;47351;53.326;-6.298;2022-09-09T18:06:14;2.10;;;0.60;;
61487;SDS011;47351;53.326;-6.298;2022-09-09T18:09:08;2.40;;;0.70;;
61487;SDS011;47351;53.326;-6.298;2022-09-09T18:11:59;3.00;;;1.00;;
61487;SDS011;47351;53.326;-6.298;2022-09-09T18:14:45;3.40;;;1.50;;
61487;SDS011;47351;53.326;-6.298;2022-09-09T18:17:37;2.70;;;0.80;;
61487;SDS011;47351;53.326;-6.298;2022-09-09T18:20:27;4.00;;;1.20;;
61487;SDS011;47351;53.326;-6.298;2022-09-09T18:23:03;3.80;;;1.00;;
61487;SDS011;47351;53.326;-6.298;2022-09-09T18:25:43;4.30;;;1.30;;
61487;SDS011;47351;53.326;-6.298;2022-09-09T18:28:35;7.20;;;2.50;;
61487;SDS011;47351;53.326;-6.298;2022-09-09T18:31:29;4.70;;;2.40;;
61487;SDS011;47351;53.326;-6.298;2022-09-09T18:35:28;5.70;;;2.10;;
61487;SDS011;47351;53.326;-6.298;2022-09-09T18:38:11;7.80;;;2.90;;
61487;SDS011;47351;53.326;-6.298;2022-09-09T18:41:36;6.80;;;2.00;;
61487;SDS011;47351;53.326;-6.298;2022-09-09T18:44:47;5.60;;;1.80;;
61487;SDS011;47351;53.326;-6.298;2022-09-09T18:47:40;6.10;;;2.80;;
61487;SDS011;47351;53.326;-6.298;2022-09-09T18:50:53;8.00;;;2.80;;
61487;SDS011;47351;53.326;-6.298;2022-09-09T18:53:55;6.70;;;2.40;;
61487;SDS011;47351;53.326;-6.298;2022-09-09T18:56:35;6.70;;;3.10;;
61487;SDS011;47351;53.326;-6.298;2022-09-09T18:59:27;8.80;;;1.70;;
61487;SDS011;47351;53.326;-6.298;2022-09-09T19:02:41;4.90;;;1.50;;
61487;SDS011;47351;53.326;-6.298;2022-09-09T19:05:50;6.20;;;1.80;;
61487;SDS011;47351;53.326;-6.298;2022-09-09T19:09:22;6.20;;;2.00;;
61487;SDS011;47351;53.326;-6.298;2022-09-09T19:12:26;6.40;;;1.50;;
61487;SDS011;47351;53.326;-6.298;2022-09-09T19:15:28;5.70;;;1.30;;
61487;SDS011;47351;53.326;-6.298;2022-09-09T19:18:19;6.40;;;1.70;;
61487;SDS011;47351;53.326;-6.298;2022-09-09T19:21:10;7.00;;;1.90;;
61487;SDS011;47351;53.326;-6.298;2022-09-09T19:24:04;7.00;;;2.80;;
61487;SDS011;47351;53.326;-6.298;2022-09-09T19:27:18;7.50;;;2.20;;
61487;SDS011;47351;53.326;-6.298;2022-09-09T19:30:28;9.70;;;2.70;;